sensor_id;sensor_type;location;lat;lon;timestamp;pressure;altitude;pressure_sealevel;temperature;humidity
78613;BME280;67933;51.060;3.638;2023-12-07T00:00:16;102067.84;;;0.16;100.00
78613;BME280;67933;51.060;3.638;2023-12-07T00:02:41;102055.69;;;0.20;100.00
78613;BME280;67933;51.060;3.638;2023-12-07T00:05:07;102062.69;;;0.30;100.00
78613;BME280;67933;51.060;3.638;2023-12-07T00:07:33;102069.66;;;0.29;100.00
78613;BME280;67933;51.060;3.638;2023-12-07T00:09:58;102054.00;;;0.34;100.00
78613;BME280;67933;51.060;3.638;2023-12-07T00:12:24;102049.66;;;0.34;100.00
78613;BME280;67933;51.060;3.638;2023-12-07T00:14:49;102062.72;;;0.37;100.00
78613;BME280;67933;51.060;3.638;2023-12-07T00:17:14;102063.56;;;0.39;100.00
78613;BME280;67933;51.060;3.638;2023-12-07T00:19:40;102054.88;;;0.41;100.00
78613;BME280;67933;51.060;3.638;2023-12-07T00:22:05;102056.66;;;0.45;100.00
78613;BME280;67933;51.060;3.638;2023-12-07T00:24:30;102064.50;;;0.49;100.00
78613;BME280;67933;51.060;3.638;2023-12-07T00:26:56;102069.72;;;0.51;100.00
78613;BME280;67933;51.060;3.638;2023-12-07T00:29:21;102059.31;;;0.54;100.00
78613;BME280;67933;51.060;3.638;2023-12-07T00:31:47;102064.53;;;0.58;100.00
78613;BME280;67933;51.060;3.638;2023-12-07T00:34:12;102066.25;;;0.62;100.00
78613;BME280;67933;51.060;3.638;2023-12-07T00:36:37;102045.38;;;0.64;100.00
78613;BME280;67933;51.060;3.638;2023-12-07T00:39:06;102042.78;;;0.70;100.00
78613;BME280;67933;51.060;3.638;2023-12-07T00:41:31;102026.25;;;0.74;100.00
78613;BME280;67933;51.060;3.638;2023-12-07T00:43:57;102037.59;;;0.76;100.00
78613;BME280;67933;51.060;3.638;2023-12-07T00:46:22;102029.75;;;0.81;100.00
78613;BME280;67933;51.060;3.638;2023-12-07T00:48:48;102032.38;;;0.85;100.00
78613;BME280;67933;51.060;3.638;2023-12-07T00:51:13;102033.25;;;0.90;100.00
78613;BME280;67933;51.060;3.638;2023-12-07T00:53:40;102034.09;;;0.88;100.00
78613;BME280;67933;51.060;3.638;2023-12-07T00:56:06;102036.75;;;0.92;100.00
78613;BME280;67933;51.060;3.638;2023-12-07T00:58:32;102031.50;;;0.97;100.00
78613;BME280;67933;51.060;3.638;2023-12-07T01:00:57;102028.03;;;0.95;100.00
78613;BME280;67933;51.060;3.638;2023-12-07T01:03:22;102040.22;;;0.94;100.00
78613;BME280;67933;51.060;3.638;2023-12-07T01:05:48;102028.03;;;0.99;100.00
78613;BME280;67933;51.060;3.638;2023-12-07T01:08:13;102031.53;;;0.98;100.00
78613;BME280;67933;51.060;3.638;2023-12-07T01:10:38;102025.41;;;1.01;100.00
78613;BME280;67933;51.060;3.638;2023-12-07T01:13:04;102033.25;;;1.02;100.00
78613;BME280;67933;51.060;3.638;2023-12-07T01:15:29;102037.59;;;1.03;100.00
78613;BME280;67933;51.060;3.638;2023-12-07T01:17:55;102019.34;;;1.08;100.00
78613;BME280;67933;51.060;3.638;2023-12-07T01:20:20;102029.75;;;1.09;100.00
78613;BME280;67933;51.060;3.638;2023-12-07T01:22:45;102026.28;;;1.04;100.00
78613;BME280;67933;51.060;3.638;2023-12-07T01:25:11;102015.84;;;1.06;100.00
78613;BME280;67933;51.060;3.638;2023-12-07T01:27:37;102012.38;;;1.07;100.00
78613;BME280;67933;51.060;3.638;2023-12-07T01:30:02;102022.81;;;1.14;100.00
78613;BME280;67933;51.060;3.638;2023-12-07T01:32:29;102019.31;;;1.17;100.00
78613;BME280;67933;51.060;3.638;2023-12-07T01:34:54;102020.19;;;1.17;100.00
78613;BME280;67933;51.060;3.638;2023-12-07T01:37:20;102015.84;;;1.21;100.00
78613;BME280;67933;51.060;3.638;2023-12-07T01:39:45;102023.66;;;1.26;100.00
78613;BME280;67933;51.060;3.638;2023-12-07T01:42:11;102016.72;;;1.29;100.00
78613;BME280;67933;51.060;3.638;2023-12-07T01:44:38;102015.81;;;1.33;100.00
78613;BME280;67933;51.060;3.638;2023-12-07T01:47:04;102014.94;;;1.33;100.00
78613;BME280;67933;51.060;3.638;2023-12-07T01:49:33;102013.19;;;1.41;100.00
78613;BME280;67933;51.060;3.638;2023-12-07T01:51:59;102003.63;;;1.43;100.00
78613;BME280;67933;51.060;3.638;2023-12-07T01:54:25;102003.63;;;1.41;100.00
78613;BME280;67933;51.060;3.638;2023-12-07T01:56:51;102005.38;;;1.44;100.00
78613;BME280;67933;51.060;3.638;2023-12-07T01:59:17;102009.69;;;1.49;100.00
78613;BME280;67933;51.060;3.638;2023-12-07T02:01:43;102021.88;;;1.55;100.00
78613;BME280;67933;51.060;3.638;2023-12-07T02:04:09;102027.13;;;1.52;100.00
78613;BME280;67933;51.060;3.638;2023-12-07T02:06:35;102031.47;;;1.59;100.00
78613;BME280;67933;51.060;3.638;2023-12-07T02:09:00;102035.84;;;1.57;100.00
78613;BME280;67933;51.060;3.638;2023-12-07T02:11:27;102045.41;;;1.55;100.00
78613;BME280;67933;51.060;3.638;2023-12-07T02:13:52;102041.94;;;1.62;100.00
78613;BME280;67933;51.060;3.638;2023-12-07T02:16:25;102038.44;;;1.66;100.00
78613;BME280;67933;51.060;3.638;2023-12-07T02:19:03;102041.94;;;1.68;100.00
78613;BME280;67933;51.060;3.638;2023-12-07T02:21:53;102023.63;;;1.67;100.00
78613;BME280;67933;51.060;3.638;2023-12-07T02:24:21;102021.88;;;1.70;100.00
78613;BME280;67933;51.060;3.638;2023-12-07T02:26:48;102022.75;;;1.68;100.00
78613;BME280;67933;51.060;3.638;2023-12-07T02:29:13;102012.28;;;1.69;100.00
78613;BME280;67933;51.060;3.638;2023-12-07T02:31:40;102011.41;;;1.66;100.00
78613;BME280;67933;51.060;3.638;2023-12-07T02:34:05;102002.72;;;1.62;100.00
78613;BME280;67933;51.060;3.638;2023-12-07T02:36:32;102003.56;;;1.64;100.00
78613;BME280;67933;51.060;3.638;2023-12-07T02:39:00;102013.16;;;1.68;100.00
78613;BME280;67933;51.060;3.638;2023-12-07T02:41:30;102004.44;;;1.69;100.00
78613;BME280;67933;51.060;3.638;2023-12-07T02:43:57;102009.66;;;1.72;100.00
78613;BME280;67933;51.060;3.638;2023-12-07T02:46:23;102003.56;;;1.75;100.00
78613;BME280;67933;51.060;3.638;2023-12-07T02:48:49;101999.19;;;1.74;100.00
78613;BME280;67933;51.060;3.638;2023-12-07T02:51:14;102001.81;;;1.77;100.00
78613;BME280;67933;51.060;3.638;2023-12-07T02:53:40;102006.16;;;1.76;100.00
78613;BME280;67933;51.060;3.638;2023-12-07T02:56:06;102000.91;;;1.79;100.00
78613;BME280;67933;51.060;3.638;2023-12-07T02:58:31;102000.91;;;1.79;100.00
78613;BME280;67933;51.060;3.638;2023-12-07T03:00:56;102000.91;;;1.79;100.00
78613;BME280;67933;51.060;3.638;2023-12-07T03:03:22;102009.63;;;1.84;100.00
78613;BME280;67933;51.060;3.638;2023-12-07T03:05:47;102021.84;;;1.82;100.00
78613;BME280;67933;51.060;3.638;2023-12-07T03:08:13;102025.34;;;1.72;100.00
78613;BME280;67933;51.060;3.638;2023-12-07T03:10:38;102042.78;;;1.73;100.00
78613;BME280;67933;51.060;3.638;2023-12-07T03:13:03;102042.78;;;1.73;100.00
78613;BME280;67933;51.060;3.638;2023-12-07T03:15:29;102044.53;;;1.68;100.00
78613;BME280;67933;51.060;3.638;2023-12-07T03:17:54;102037.56;;;1.67;100.00
78613;BME280;67933;51.060;3.638;2023-12-07T03:20:20;102034.94;;;1.73;100.00
78613;BME280;67933;51.060;3.638;2023-12-07T03:22:46;102023.63;;;1.70;100.00
78613;BME280;67933;51.060;3.638;2023-12-07T03:25:11;102030.59;;;1.69;100.00
78613;BME280;67933;51.060;3.638;2023-12-07T03:27:36;102037.56;;;1.70;100.00
78613;BME280;67933;51.060;3.638;2023-12-07T03:30:02;102039.31;;;1.70;100.00
78613;BME280;67933;51.060;3.638;2023-12-07T03:32:28;102031.44;;;1.74;100.00
78613;BME280;67933;51.060;3.638;2023-12-07T03:34:53;102025.38;;;1.69;100.00
78613;BME280;67933;51.060;3.638;2023-12-07T03:37:18;102014.00;;;1.73;100.00
78613;BME280;67933;51.060;3.638;2023-12-07T03:39:44;102007.03;;;1.74;100.00
78613;BME280;67933;51.060;3.638;2023-12-07T03:42:09;102000.94;;;1.72;100.00
78613;BME280;67933;51.060;3.638;2023-12-07T03:44:35;101990.47;;;1.73;100.00
78613;BME280;67933;51.060;3.638;2023-12-07T03:47:01;101989.59;;;1.74;100.00
78613;BME280;67933;51.060;3.638;2023-12-07T03:49:26;101990.47;;;1.76;100.00
78613;BME280;67933;51.060;3.638;2023-12-07T03:51:52;102000.94;;;1.76;100.00
78613;BME280;67933;51.060;3.638;2023-12-07T03:54:17;101997.44;;;1.76;100.00
78613;BME280;67933;51.060;3.638;2023-12-07T03:56:43;102000.91;;;1.82;100.00
78613;BME280;67933;51.060;3.638;2023-12-07T03:59:08;101995.72;;;1.78;100.00
78613;BME280;67933;51.060;3.638;2023-12-07T04:01:33;101988.72;;;1.75;100.00
78613;BME280;67933;51.060;3.638;2023-12-07T04:03:59;101995.69;;;1.73;100.00
78613;BME280;67933;51.060;3.638;2023-12-07T04:06:26;101987.00;;;1.77;100.00
78613;BME280;67933;51.060;3.638;2023-12-07T04:08:51;101999.22;;;1.69;100.00
78613;BME280;67933;51.060;3.638;2023-12-07T04:11:17;101995.72;;;1.70;100.00
78613;BME280;67933;51.060;3.638;2023-12-07T04:13:44;101990.47;;;1.73;100.00
78613;BME280;67933;51.060;3.638;2023-12-07T04:16:10;101982.63;;;1.72;100.00
78613;BME280;67933;51.060;3.638;2023-12-07T04:18:36;101988.72;;;1.75;100.00
78613;BME280;67933;51.060;3.638;2023-12-07T04:21:02;101999.16;;;1.78;100.00
78613;BME280;67933;51.060;3.638;2023-12-07T04:23:29;101987.00;;;1.76;100.00
78613;BME280;67933;51.060;3.638;2023-12-07T04:25:55;101985.25;;;1.78;100.00
78613;BME280;67933;51.060;3.638;2023-12-07T04:28:20;101977.41;;;1.75;100.00
78613;BME280;67933;51.060;3.638;2023-12-07T04:30:46;101970.41;;;1.72;100.00
78613;BME280;67933;51.060;3.638;2023-12-07T04:33:11;101967.81;;;1.74;100.00
78613;BME280;67933;51.060;3.638;2023-12-07T04:35:36;101962.53;;;1.78;100.00
78613;BME280;67933;51.060;3.638;2023-12-07T04:38:02;101957.31;;;1.78;100.00
78613;BME280;67933;51.060;3.638;2023-12-07T04:40:27;101955.56;;;1.80;100.00
78613;BME280;67933;51.060;3.638;2023-12-07T04:42:53;101957.31;;;1.81;100.00
78613;BME280;67933;51.060;3.638;2023-12-07T04:45:19;101946.00;;;1.78;100.00
78613;BME280;67933;51.060;3.638;2023-12-07T04:47:45;101948.59;;;1.81;100.00
78613;BME280;67933;51.060;3.638;2023-12-07T04:50:10;101945.97;;;1.85;100.00
78613;BME280;67933;51.060;3.638;2023-12-07T04:52:36;101939.00;;;1.83;100.00
78613;BME280;67933;51.060;3.638;2023-12-07T04:55:01;101940.72;;;1.87;100.00
78613;BME280;67933;51.060;3.638;2023-12-07T04:57:27;101938.97;;;1.90;100.00
78613;BME280;67933;51.060;3.638;2023-12-07T04:59:52;101939.84;;;1.92;100.00
78613;BME280;67933;51.060;3.638;2023-12-07T05:02:18;101937.19;;;1.96;100.00
78613;BME280;67933;51.060;3.638;2023-12-07T05:04:43;101938.06;;;1.94;100.00
78613;BME280;67933;51.060;3.638;2023-12-07T05:07:11;101936.31;;;2.00;100.00
78613;BME280;67933;51.060;3.638;2023-12-07T05:09:38;101932.81;;;2.01;100.00
78613;BME280;67933;51.060;3.638;2023-12-07T05:12:04;101932.78;;;2.07;100.00
78613;BME280;67933;51.060;3.638;2023-12-07T05:14:32;101933.63;;;2.10;100.00
78613;BME280;67933;51.060;3.638;2023-12-07T05:16:57;101924.88;;;2.16;100.00
78613;BME280;67933;51.060;3.638;2023-12-07T05:19:23;101919.63;;;2.17;100.00
78613;BME280;67933;51.060;3.638;2023-12-07T05:21:49;101906.53;;;2.17;100.00
78613;BME280;67933;51.060;3.638;2023-12-07T05:24:15;101909.16;;;2.20;100.00
78613;BME280;67933;51.060;3.638;2023-12-07T05:26:42;101913.50;;;2.21;100.00
78613;BME280;67933;51.060;3.638;2023-12-07T05:29:08;101905.66;;;2.20;100.00
78613;BME280;67933;51.060;3.638;2023-12-07T05:31:34;101898.69;;;2.19;100.00
78613;BME280;67933;51.060;3.638;2023-12-07T05:34:00;101893.44;;;2.23;100.00
78613;BME280;67933;51.060;3.638;2023-12-07T05:36:26;101885.63;;;2.16;100.00
78613;BME280;67933;51.060;3.638;2023-12-07T05:38:51;101887.34;;;2.17;100.00
78613;BME280;67933;51.060;3.638;2023-12-07T05:41:17;101887.31;;;2.20;100.00
78613;BME280;67933;51.060;3.638;2023-12-07T05:43:42;101889.06;;;2.24;100.00
78613;BME280;67933;51.060;3.638;2023-12-07T05:46:07;101881.19;;;2.25;100.00
78613;BME280;67933;51.060;3.638;2023-12-07T05:48:33;101896.06;;;2.22;100.00
78613;BME280;67933;51.060;3.638;2023-12-07T05:50:58;101894.25;;;2.25;100.00
78613;BME280;67933;51.060;3.638;2023-12-07T05:53:24;101903.03;;;2.23;100.00
78613;BME280;67933;51.060;3.638;2023-12-07T05:55:50;101910.00;;;2.21;100.00
78613;BME280;67933;51.060;3.638;2023-12-07T05:58:16;101908.28;;;2.20;100.00
78613;BME280;67933;51.060;3.638;2023-12-07T06:00:43;101903.94;;;2.16;100.00
78613;BME280;67933;51.060;3.638;2023-12-07T06:03:09;101915.28;;;2.15;100.00
78613;BME280;67933;51.060;3.638;2023-12-07T06:05:37;101910.06;;;2.15;100.00
78613;BME280;67933;51.060;3.638;2023-12-07T06:08:04;101919.63;;;2.20;100.00
78613;BME280;67933;51.060;3.638;2023-12-07T06:10:31;101915.25;;;2.18;100.00
78613;BME280;67933;51.060;3.638;2023-12-07T06:12:57;101917.00;;;2.22;100.00
78613;BME280;67933;51.060;3.638;2023-12-07T06:15:24;101915.25;;;2.21;100.00
78613;BME280;67933;51.060;3.638;2023-12-07T06:17:49;101914.38;;;2.17;100.00
78613;BME280;67933;51.060;3.638;2023-12-07T06:20:15;101917.00;;;2.23;100.00
78613;BME280;67933;51.060;3.638;2023-12-07T06:22:40;101911.75;;;2.22;100.00
78613;BME280;67933;51.060;3.638;2023-12-07T06:25:06;101911.75;;;2.19;100.00
78613;BME280;67933;51.060;3.638;2023-12-07T06:27:34;101899.53;;;2.21;100.00
78613;BME280;67933;51.060;3.638;2023-12-07T06:30:00;101900.41;;;2.17;100.00
78613;BME280;67933;51.060;3.638;2023-12-07T06:32:25;101906.53;;;2.22;100.00
78613;BME280;67933;51.060;3.638;2023-12-07T06:34:51;101903.03;;;2.23;100.00
78613;BME280;67933;51.060;3.638;2023-12-07T06:37:17;101906.56;;;2.16;100.00
78613;BME280;67933;51.060;3.638;2023-12-07T06:39:43;101903.91;;;2.22;100.00
78613;BME280;67933;51.060;3.638;2023-12-07T06:42:08;101890.78;;;2.25;100.00
78613;BME280;67933;51.060;3.638;2023-12-07T06:44:33;101896.06;;;2.19;100.00
78613;BME280;67933;51.060;3.638;2023-12-07T06:46:59;101895.19;;;2.17;100.00
78613;BME280;67933;51.060;3.638;2023-12-07T06:49:24;101886.44;;;2.24;100.00
78613;BME280;67933;51.060;3.638;2023-12-07T06:51:49;101885.53;;;2.31;100.00
78613;BME280;67933;51.060;3.638;2023-12-07T06:54:15;101889.00;;;2.31;100.00
78613;BME280;67933;51.060;3.638;2023-12-07T06:56:40;101888.09;;;2.32;100.00
78613;BME280;67933;51.060;3.638;2023-12-07T06:59:05;101881.16;;;2.28;100.00
78613;BME280;67933;51.060;3.638;2023-12-07T07:01:31;101874.13;;;2.33;100.00
78613;BME280;67933;51.060;3.638;2023-12-07T07:03:56;101873.25;;;2.36;100.00
78613;BME280;67933;51.060;3.638;2023-12-07T07:06:21;101866.28;;;2.35;100.00
78613;BME280;67933;51.060;3.638;2023-12-07T07:08:47;101866.34;;;2.26;100.00
78613;BME280;67933;51.060;3.638;2023-12-07T07:11:14;101865.47;;;2.30;100.00
78613;BME280;67933;51.060;3.638;2023-12-07T07:13:40;101871.56;;;2.32;100.00
78613;BME280;67933;51.060;3.638;2023-12-07T07:16:08;101861.97;;;2.26;100.00
78613;BME280;67933;51.060;3.638;2023-12-07T07:18:33;101860.16;;;2.35;100.00
78613;BME280;67933;51.060;3.638;2023-12-07T07:20:59;101861.09;;;2.32;100.00
78613;BME280;67933;51.060;3.638;2023-12-07T07:23:25;101855.81;;;2.37;100.00
78613;BME280;67933;51.060;3.638;2023-12-07T07:25:50;101862.78;;;2.39;100.00
78613;BME280;67933;51.060;3.638;2023-12-07T07:28:15;101866.22;;;2.41;100.00
78613;BME280;67933;51.060;3.638;2023-12-07T07:30:41;101850.56;;;2.38;100.00
78613;BME280;67933;51.060;3.638;2023-12-07T07:33:06;101861.84;;;2.43;100.00
78613;BME280;67933;51.060;3.638;2023-12-07T07:35:32;101856.63;;;2.45;100.00
78613;BME280;67933;51.060;3.638;2023-12-07T07:37:57;101868.84;;;2.43;100.00
78613;BME280;67933;51.060;3.638;2023-12-07T07:40:23;101869.72;;;2.43;100.00
78613;BME280;67933;51.060;3.638;2023-12-07T07:42:50;101862.72;;;2.45;100.00
78613;BME280;67933;51.060;3.638;2023-12-07T07:45:15;101857.53;;;2.39;100.00
78613;BME280;67933;51.060;3.638;2023-12-07T07:47:41;101861.84;;;2.45;100.00
78613;BME280;67933;51.060;3.638;2023-12-07T07:50:07;101853.13;;;2.44;100.00
78613;BME280;67933;51.060;3.638;2023-12-07T07:52:33;101847.88;;;2.44;100.00
78613;BME280;67933;51.060;3.638;2023-12-07T07:55:05;101850.50;;;2.44;100.00
78613;BME280;67933;51.060;3.638;2023-12-07T07:57:31;101847.88;;;2.44;100.00
78613;BME280;67933;51.060;3.638;2023-12-07T07:59:57;101847.88;;;2.44;100.00
78613;BME280;67933;51.060;3.638;2023-12-07T08:02:23;101847.03;;;2.41;100.00
78613;BME280;67933;51.060;3.638;2023-12-07T08:04:48;101845.31;;;2.40;100.00
78613;BME280;67933;51.060;3.638;2023-12-07T08:07:14;101847.88;;;2.44;100.00
78613;BME280;67933;51.060;3.638;2023-12-07T08:09:40;101852.31;;;2.39;100.00
78613;BME280;67933;51.060;3.638;2023-12-07T08:12:06;101850.50;;;2.41;100.00
78613;BME280;67933;51.060;3.638;2023-12-07T08:14:35;101864.47;;;2.40;100.00
78613;BME280;67933;51.060;3.638;2023-12-07T08:17:00;101848.78;;;2.40;100.00
78613;BME280;67933;51.060;3.638;2023-12-07T08:19:26;101853.97;;;2.48;100.00
78613;BME280;67933;51.060;3.638;2023-12-07T08:21:51;101856.59;;;2.46;100.00
78613;BME280;67933;51.060;3.638;2023-12-07T08:24:16;101858.34;;;2.47;100.00
78613;BME280;67933;51.060;3.638;2023-12-07T08:26:42;101843.44;;;2.52;100.00
78613;BME280;67933;51.060;3.638;2023-12-07T08:29:07;101846.94;;;2.51;100.00
78613;BME280;67933;51.060;3.638;2023-12-07T08:31:33;101849.50;;;2.59;100.00
78613;BME280;67933;51.060;3.638;2023-12-07T08:33:58;101851.25;;;2.60;100.00
78613;BME280;67933;51.060;3.638;2023-12-07T08:36:26;101852.13;;;2.60;100.00
78613;BME280;67933;51.060;3.638;2023-12-07T08:38:51;101854.69;;;2.63;100.00
78613;BME280;67933;51.060;3.638;2023-12-07T08:41:16;101850.28;;;2.68;100.00
78613;BME280;67933;51.060;3.638;2023-12-07T08:43:42;101858.09;;;2.75;100.00
78613;BME280;67933;51.060;3.638;2023-12-07T08:46:07;101846.72;;;2.76;100.00
78613;BME280;67933;51.060;3.638;2023-12-07T08:48:33;101844.09;;;2.77;100.00
78613;BME280;67933;51.060;3.638;2023-12-07T08:50:59;101847.56;;;2.79;100.00
78613;BME280;67933;51.060;3.638;2023-12-07T08:53:25;101835.38;;;2.78;100.00
78613;BME280;67933;51.060;3.638;2023-12-07T08:55:51;101833.56;;;2.82;100.00
78613;BME280;67933;51.060;3.638;2023-12-07T08:58:17;101824.81;;;2.86;100.00
78613;BME280;67933;51.060;3.638;2023-12-07T09:00:42;101822.13;;;2.92;100.00
78613;BME280;67933;51.060;3.638;2023-12-07T09:03:08;101824.69;;;2.95;100.00
78613;BME280;67933;51.060;3.638;2023-12-07T09:05:34;101826.34;;;3.03;100.00
78613;BME280;67933;51.060;3.638;2023-12-07T09:07:59;101825.53;;;3.01;100.00
78613;BME280;67933;51.060;3.638;2023-12-07T09:10:25;101823.69;;;3.08;100.00
78613;BME280;67933;51.060;3.638;2023-12-07T09:12:50;101812.34;;;3.04;100.00
78613;BME280;67933;51.060;3.638;2023-12-07T09:15:16;101806.13;;;3.15;100.00
78613;BME280;67933;51.060;3.638;2023-12-07T09:17:41;101794.78;;;3.13;100.00
78613;BME280;67933;51.060;3.638;2023-12-07T09:20:10;101780.72;;;3.18;100.00
78613;BME280;67933;51.060;3.638;2023-12-07T09:22:46;101781.31;;;3.41;100.00
78613;BME280;67933;51.060;3.638;2023-12-07T09:25:12;101785.75;;;3.36;100.00
78613;BME280;67933;51.060;3.638;2023-12-07T09:27:41;101785.75;;;3.38;100.00
78613;BME280;67933;51.060;3.638;2023-12-07T09:30:08;101788.38;;;3.36;100.00
78613;BME280;67933;51.060;3.638;2023-12-07T09:32:40;101774.19;;;3.51;100.00
78613;BME280;67933;51.060;3.638;2023-12-07T09:35:08;101774.19;;;3.53;100.00
78613;BME280;67933;51.060;3.638;2023-12-07T09:37:44;101762.22;;;4.44;100.00
78613;BME280;67933;51.060;3.638;2023-12-07T09:40:14;101746.34;;;4.96;100.00
78613;BME280;67933;51.060;3.638;2023-12-07T09:42:40;101753.22;;;5.43;100.00
78613;BME280;67933;51.060;3.638;2023-12-07T09:45:08;101761.22;;;5.40;100.00
78613;BME280;67933;51.060;3.638;2023-12-07T09:47:36;101750.00;;;5.32;100.00
78613;BME280;67933;51.060;3.638;2023-12-07T09:50:03;101757.44;;;4.65;100.00
78613;BME280;67933;51.060;3.638;2023-12-07T09:52:28;101753.50;;;4.42;100.00
78613;BME280;67933;51.060;3.638;2023-12-07T09:54:54;101747.00;;;4.64;100.00
78613;BME280;67933;51.060;3.638;2023-12-07T09:57:21;101746.16;;;5.05;100.00
78613;BME280;67933;51.060;3.638;2023-12-07T09:59:48;101744.53;;;5.41;100.00
78613;BME280;67933;51.060;3.638;2023-12-07T10:02:13;101750.19;;;5.63;100.00
78613;BME280;67933;51.060;3.638;2023-12-07T10:04:40;101747.75;;;5.92;100.00
78613;BME280;67933;51.060;3.638;2023-12-07T10:07:05;101745.63;;;5.69;100.00
78613;BME280;67933;51.060;3.638;2023-12-07T10:09:37;101732.47;;;5.69;100.00
78613;BME280;67933;51.060;3.638;2023-12-07T10:12:04;101722.13;;;5.99;100.00
78613;BME280;67933;51.060;3.638;2023-12-07T10:14:30;101715.06;;;6.01;100.00
78613;BME280;67933;51.060;3.638;2023-12-07T10:16:56;101712.94;;;6.15;100.00
78613;BME280;67933;51.060;3.638;2023-12-07T10:19:22;101711.38;;;6.08;100.00
78613;BME280;67933;51.060;3.638;2023-12-07T10:21:48;101705.03;;;6.15;100.00
78613;BME280;67933;51.060;3.638;2023-12-07T10:24:16;101706.19;;;5.68;100.00
78613;BME280;67933;51.060;3.638;2023-12-07T10:26:43;101712.97;;;5.41;100.00
78613;BME280;67933;51.060;3.638;2023-12-07T10:29:09;101704.53;;;5.25;100.00
78613;BME280;67933;51.060;3.638;2023-12-07T10:31:36;101692.94;;;5.34;100.00
78613;BME280;67933;51.060;3.638;2023-12-07T10:34:02;101696.19;;;5.45;100.00
78613;BME280;67933;51.060;3.638;2023-12-07T10:36:27;101700.38;;;5.54;100.00
78613;BME280;67933;51.060;3.638;2023-12-07T10:38:54;101692.72;;;5.43;100.00
78613;BME280;67933;51.060;3.638;2023-12-07T10:41:21;101678.06;;;5.70;100.00
78613;BME280;67933;51.060;3.638;2023-12-07T10:43:54;101678.84;;;5.73;100.00
78613;BME280;67933;51.060;3.638;2023-12-07T10:46:22;101670.03;;;5.74;100.00
78613;BME280;67933;51.060;3.638;2023-12-07T10:48:51;101661.72;;;5.93;100.00
78613;BME280;67933;51.060;3.638;2023-12-07T10:51:58;101657.19;;;5.98;100.00
78613;BME280;67933;51.060;3.638;2023-12-07T10:54:30;101647.75;;;6.23;100.00
78613;BME280;67933;51.060;3.638;2023-12-07T10:56:59;101648.78;;;6.50;100.00
78613;BME280;67933;51.060;3.638;2023-12-07T10:59:29;101644.75;;;6.37;100.00
78613;BME280;67933;51.060;3.638;2023-12-07T11:01:56;101643.81;;;6.39;100.00
78613;BME280;67933;51.060;3.638;2023-12-07T11:04:23;101639.44;;;6.06;100.00
78613;BME280;67933;51.060;3.638;2023-12-07T11:06:52;101634.19;;;6.04;100.00
78613;BME280;67933;51.060;3.638;2023-12-07T11:09:25;101629.72;;;6.08;100.00
78613;BME280;67933;51.060;3.638;2023-12-07T11:12:08;101628.72;;;6.12;100.00
78613;BME280;67933;51.060;3.638;2023-12-07T11:14:38;101628.44;;;5.90;100.00
78613;BME280;67933;51.060;3.638;2023-12-07T11:17:04;101629.88;;;5.66;100.00
78613;BME280;67933;51.060;3.638;2023-12-07T11:21:59;101607.75;;;5.39;100.00
78613;BME280;67933;51.060;3.638;2023-12-07T11:24:25;101608.78;;;5.32;100.00
78613;BME280;67933;51.060;3.638;2023-12-07T11:26:54;101600.41;;;5.17;100.00
78613;BME280;67933;51.060;3.638;2023-12-07T11:29:20;101623.06;;;5.22;100.00
78613;BME280;67933;51.060;3.638;2023-12-07T11:31:48;101613.41;;;5.23;100.00
78613;BME280;67933;51.060;3.638;2023-12-07T11:34:13;101607.09;;;5.30;100.00
78613;BME280;67933;51.060;3.638;2023-12-07T11:36:40;101602.19;;;5.15;100.00
78613;BME280;67933;51.060;3.638;2023-12-07T11:41:50;101573.06;;;5.24;100.00
78613;BME280;67933;51.060;3.638;2023-12-07T11:44:17;101573.91;;;5.24;100.00
78613;BME280;67933;51.060;3.638;2023-12-07T11:46:42;101579.78;;;4.98;100.00
78613;BME280;67933;51.060;3.638;2023-12-07T11:49:08;101566.72;;;4.95;100.00
78613;BME280;67933;51.060;3.638;2023-12-07T11:51:36;101550.78;;;5.01;100.00
78613;BME280;67933;51.060;3.638;2023-12-07T11:54:01;101543.84;;;4.97;100.00
78613;BME280;67933;51.060;3.638;2023-12-07T11:56:26;101538.53;;;5.00;100.00
78613;BME280;67933;51.060;3.638;2023-12-07T11:58:52;101532.41;;;5.00;100.00
78613;BME280;67933;51.060;3.638;2023-12-07T12:01:17;101525.31;;;5.03;100.00
78613;BME280;67933;51.060;3.638;2023-12-07T12:03:43;101524.56;;;4.98;100.00
78613;BME280;67933;51.060;3.638;2023-12-07T12:06:10;101514.78;;;5.03;100.00
78613;BME280;67933;51.060;3.638;2023-12-07T12:08:36;101504.38;;;5.00;100.00
78613;BME280;67933;51.060;3.638;2023-12-07T12:11:02;101506.78;;;5.10;100.00
78613;BME280;67933;51.060;3.638;2023-12-07T12:13:33;101498.13;;;5.04;100.00
78613;BME280;67933;51.060;3.638;2023-12-07T12:16:00;101492.72;;;5.11;100.00
78613;BME280;67933;51.060;3.638;2023-12-07T12:18:26;101476.00;;;5.13;100.00
78613;BME280;67933;51.060;3.638;2023-12-07T12:20:53;101470.97;;;5.04;100.00
78613;BME280;67933;51.060;3.638;2023-12-07T12:23:19;101465.56;;;5.10;100.00
78613;BME280;67933;51.060;3.638;2023-12-07T12:25:47;101462.13;;;5.07;100.00
78613;BME280;67933;51.060;3.638;2023-12-07T12:28:16;101447.03;;;5.15;100.00
78613;BME280;67933;51.060;3.638;2023-12-07T12:30:43;101448.69;;;5.19;100.00
78613;BME280;67933;51.060;3.638;2023-12-07T12:33:08;101449.63;;;5.16;100.00
78613;BME280;67933;51.060;3.638;2023-12-07T12:35:34;101452.34;;;5.12;100.00
78613;BME280;67933;51.060;3.638;2023-12-07T12:37:59;101437.31;;;5.18;100.00
78613;BME280;67933;51.060;3.638;2023-12-07T12:40:27;101431.41;;;5.09;100.00
78613;BME280;67933;51.060;3.638;2023-12-07T12:42:55;101430.59;;;5.07;100.00
78613;BME280;67933;51.060;3.638;2023-12-07T12:45:20;101427.72;;;5.16;100.00
78613;BME280;67933;51.060;3.638;2023-12-07T12:47:47;101424.22;;;5.15;100.00
78613;BME280;67933;51.060;3.638;2023-12-07T12:50:41;101433.06;;;5.13;100.00